createdAt,value
2022-12-03T00:02:15.659Z,5.72
2022-12-03T00:04:42.413Z,4.88
2022-12-03T00:07:09.113Z,4.85
2022-12-03T00:09:35.846Z,5.18
2022-12-03T00:12:02.514Z,6.03
2022-12-03T00:14:29.364Z,4.72
2022-12-03T00:16:56.048Z,5.60
2022-12-03T00:19:22.766Z,4.97
2022-12-03T00:21:49.603Z,5.15
2022-12-03T00:24:17.885Z,6.35
2022-12-03T00:26:44.603Z,5.03
2022-12-03T00:29:11.657Z,5.68
2022-12-03T00:31:38.474Z,5.38
2022-12-03T00:34:05.264Z,4.72
2022-12-03T00:36:32.436Z,5.30
2022-12-03T00:38:59.497Z,5.40
2022-12-03T00:41:26.232Z,6.88
2022-12-03T00:43:57.516Z,6.38
2022-12-03T00:46:25.529Z,6.22
2022-12-03T00:48:52.600Z,6.00
2022-12-03T00:51:19.705Z,5.90
2022-12-03T00:53:46.586Z,5.70
2022-12-03T00:56:13.475Z,6.28
2022-12-03T00:58:40.297Z,6.05
2022-12-03T01:01:07.174Z,6.00
2022-12-03T01:03:34.067Z,6.47
2022-12-03T01:06:00.960Z,5.50
2022-12-03T01:08:27.836Z,6.07
2022-12-03T01:10:54.788Z,6.72
2022-12-03T01:13:21.664Z,5.93
2022-12-03T01:15:48.566Z,6.13
2022-12-03T01:18:15.546Z,6.25
2022-12-03T01:20:42.351Z,5.75
2022-12-03T01:23:09.209Z,8.02
2022-12-03T01:25:36.067Z,5.90
2022-12-03T01:28:03.173Z,7.07
2022-12-03T01:30:50.202Z,5.57
2022-12-03T01:33:17.239Z,6.40
2022-12-03T01:35:44.054Z,5.72
2022-12-03T01:38:10.895Z,5.88
2022-12-03T01:40:37.786Z,6.93
2022-12-03T01:43:04.632Z,6.85
2022-12-03T01:45:31.460Z,5.85
2022-12-03T01:47:58.416Z,8.20
2022-12-03T01:50:31.608Z,6.65
2022-12-03T01:53:01.463Z,6.30
2022-12-03T01:55:28.880Z,7.13
2022-12-03T01:57:59.449Z,6.43
2022-12-03T02:00:27.851Z,6.50
2022-12-03T02:03:01.046Z,6.82
2022-12-03T02:05:32.925Z,6.25
2022-12-03T02:08:00.624Z,6.63
2022-12-03T02:10:36.109Z,6.63
2022-12-03T02:13:04.762Z,5.85
2022-12-03T02:15:31.506Z,6.55
2022-12-03T02:17:58.440Z,6.40
2022-12-03T02:20:25.203Z,6.00
2022-12-03T02:23:10.069Z,8.43
2022-12-03T02:25:37.743Z,7.07
2022-12-03T02:28:08.305Z,7.15
2022-12-03T02:30:35.703Z,7.05
2022-12-03T02:33:03.012Z,6.03
2022-12-03T02:35:33.575Z,7.63
2022-12-03T02:38:09.439Z,8.15
2022-12-03T02:40:36.376Z,7.18
2022-12-03T02:43:04.616Z,6.93
2022-12-03T02:45:38.369Z,7.53
2022-12-03T02:48:38.281Z,6.95
2022-12-03T02:51:08.676Z,6.80
2022-12-03T02:53:42.284Z,8.00
2022-12-03T02:56:10.171Z,6.65
2022-12-03T02:58:38.318Z,6.07
2022-12-03T03:01:05.941Z,8.23
2022-12-03T03:03:33.350Z,6.72
2022-12-03T03:06:02.513Z,7.22
2022-12-03T03:08:30.443Z,6.90
2022-12-03T03:10:59.309Z,7.63
2022-12-03T03:13:26.193Z,6.50
2022-12-03T03:15:53.109Z,6.93
2022-12-03T03:18:20.116Z,7.57
2022-12-03T03:20:47.004Z,6.55
2022-12-03T03:23:17.613Z,6.93
2022-12-03T03:26:02.700Z,7.03
2022-12-03T03:28:30.392Z,7.70
2022-12-03T03:31:00.563Z,8.30
2022-12-03T03:33:27.693Z,6.95
2022-12-03T03:35:54.811Z,6.55
2022-12-03T03:38:23.350Z,7.32
2022-12-03T03:40:51.777Z,7.75
2022-12-03T03:43:20.134Z,7.43
2022-12-03T03:45:46.962Z,6.57
2022-12-03T03:48:14.432Z,5.53
2022-12-03T03:50:43.085Z,6.80
2022-12-03T03:53:10.909Z,8.20
2022-12-03T03:55:38.337Z,7.50
2022-12-03T03:58:05.314Z,6.40
2022-12-03T04:00:32.286Z,6.57
2022-12-03T04:02:59.058Z,7.55
2022-12-03T04:05:26.276Z,6.95
2022-12-03T04:07:53.177Z,7.82
2022-12-03T04:10:43.246Z,7.10
2022-12-03T04:13:09.985Z,7.43
2022-12-03T04:15:36.723Z,8.23
2022-12-03T04:18:22.893Z,7.93
2022-12-03T04:20:49.693Z,6.75
2022-12-03T04:23:16.440Z,6.82
2022-12-03T04:26:03.487Z,8.23
2022-12-03T04:28:49.203Z,6.00
2022-12-03T04:31:34.627Z,6.93
2022-12-03T04:34:19.962Z,6.75
2022-12-03T04:36:47.221Z,6.68
2022-12-03T04:39:14.053Z,7.18
2022-12-03T04:41:40.891Z,7.25
2022-12-03T04:44:26.612Z,7.35
2022-12-03T04:46:53.427Z,6.63
2022-12-03T04:49:20.332Z,6.68
2022-12-03T04:52:02.240Z,6.55
2022-12-03T04:54:29.331Z,7.35
2022-12-03T04:56:56.612Z,7.00
2022-12-03T04:59:23.604Z,6.60
2022-12-03T05:01:50.563Z,6.60
2022-12-03T05:04:17.845Z,7.50
2022-12-03T05:06:44.779Z,7.03
2022-12-03T05:09:12.574Z,6.25
2022-12-03T05:11:39.916Z,6.65
2022-12-03T05:14:07.167Z,6.60
2022-12-03T05:16:34.069Z,6.70
2022-12-03T05:19:01.325Z,7.63
2022-12-03T05:21:28.196Z,6.72
2022-12-03T05:23:55.495Z,7.32
2022-12-03T05:26:22.763Z,7.03
2022-12-03T05:28:50.100Z,7.03
2022-12-03T05:31:17.803Z,6.88
2022-12-03T05:33:44.696Z,7.68
2022-12-03T05:36:11.949Z,7.63
2022-12-03T05:38:41.234Z,7.15
2022-12-03T05:41:27.953Z,8.05
2022-12-03T05:43:55.009Z,7.70
2022-12-03T05:46:21.829Z,7.70
2022-12-03T05:48:48.827Z,8.05
2022-12-03T05:51:15.584Z,8.65
2022-12-03T05:53:42.334Z,9.90
2022-12-03T05:56:09.109Z,8.50
2022-12-03T05:58:36.085Z,8.60
2022-12-03T06:01:02.820Z,8.48
2022-12-03T06:03:30.431Z,8.43
2022-12-03T06:05:57.253Z,7.25
2022-12-03T06:08:24.093Z,7.72
2022-12-03T06:10:51.379Z,7.25
2022-12-03T06:13:18.109Z,7.72
2022-12-03T06:15:44.856Z,8.25
2022-12-03T06:18:12.117Z,7.88
2022-12-03T06:20:41.265Z,7.93
2022-12-03T06:23:08.057Z,9.65
2022-12-03T06:25:34.842Z,8.60
2022-12-03T06:28:01.938Z,8.30
2022-12-03T06:30:29.169Z,8.38
2022-12-03T06:32:57.824Z,7.72
2022-12-03T06:35:25.045Z,8.85
2022-12-03T06:37:52.015Z,10.05
2022-12-03T06:40:19.851Z,9.00
2022-12-03T06:42:46.629Z,7.40
2022-12-03T06:45:13.921Z,6.82
2022-12-03T06:47:40.925Z,8.40
2022-12-03T06:50:08.861Z,7.55
2022-12-03T06:52:35.965Z,6.63
2022-12-03T06:55:02.817Z,6.82
2022-12-03T06:57:29.818Z,7.55
2022-12-03T06:59:56.736Z,6.30
2022-12-03T07:02:24.029Z,7.22
2022-12-03T07:04:50.795Z,6.22
2022-12-03T07:07:17.539Z,7.57
2022-12-03T07:09:44.299Z,8.02
2022-12-03T07:12:11.178Z,8.20
2022-12-03T07:14:38.205Z,8.45
2022-12-03T07:17:05.629Z,10.25
2022-12-03T07:19:33.175Z,8.05
2022-12-03T07:22:00.391Z,7.85
2022-12-03T07:24:27.376Z,10.30
2022-12-03T07:26:54.397Z,10.23
2022-12-03T07:29:23.754Z,11.55
2022-12-03T07:31:50.495Z,9.02
2022-12-03T07:34:17.217Z,9.77
2022-12-03T07:36:44.148Z,10.90
2022-12-03T07:39:10.996Z,10.70
2022-12-03T07:41:37.839Z,11.00
2022-12-03T07:44:12.545Z,11.38
2022-12-03T07:46:42.036Z,10.40
2022-12-03T07:49:08.950Z,11.98
2022-12-03T07:51:35.682Z,9.57
2022-12-03T07:54:02.392Z,10.80
2022-12-03T07:56:29.396Z,10.55
2022-12-03T07:58:57.980Z,10.07
2022-12-03T08:01:24.786Z,9.38
2022-12-03T08:03:51.637Z,9.43
2022-12-03T08:06:18.613Z,10.00
2022-12-03T08:08:45.321Z,10.82
2022-12-03T08:11:15.656Z,10.02
2022-12-03T08:13:42.872Z,10.38
2022-12-03T08:16:19.247Z,9.52
2022-12-03T08:18:47.715Z,10.60
2022-12-03T08:21:16.420Z,9.80
2022-12-03T08:23:43.570Z,10.20
2022-12-03T08:26:24.944Z,10.77
2022-12-03T08:28:52.685Z,10.88
2022-12-03T08:31:27.981Z,9.57
2022-12-03T08:34:19.649Z,10.80
2022-12-03T08:36:48.377Z,9.50
2022-12-03T08:39:34.393Z,10.55
2022-12-03T08:42:38.374Z,10.60
2022-12-03T08:45:29.412Z,10.57
2022-12-03T08:48:00.263Z,10.57
2022-12-03T08:50:30.386Z,10.03
2022-12-03T08:53:08.552Z,10.45
2022-12-03T08:55:38.273Z,10.50
2022-12-03T08:58:25.057Z,11.13
2022-12-03T09:01:05.645Z,13.23
2022-12-03T09:03:32.561Z,10.35
2022-12-03T09:05:59.289Z,11.32
2022-12-03T09:08:26.031Z,10.23
2022-12-03T09:10:52.920Z,9.65
2022-12-03T09:13:19.695Z,9.63
2022-12-03T09:15:46.455Z,9.88
2022-12-03T09:18:14.522Z,10.70
2022-12-03T09:20:41.542Z,9.98
2022-12-03T09:23:08.533Z,9.98
2022-12-03T09:25:35.265Z,9.48
2022-12-03T09:28:02.108Z,10.45
2022-12-03T09:30:29.108Z,10.38
2022-12-03T09:32:55.801Z,9.38
2022-12-03T09:35:23.127Z,11.20
2022-12-03T09:37:49.810Z,10.52
2022-12-03T09:40:16.621Z,11.13
2022-12-03T09:42:43.405Z,9.18
2022-12-03T09:45:12.855Z,9.85
2022-12-03T09:47:43.642Z,9.00
2022-12-03T09:50:23.707Z,8.25
2022-12-03T09:52:51.200Z,8.98
2022-12-03T09:55:22.712Z,10.82
2022-12-03T09:57:49.545Z,10.95
2022-12-03T10:00:25.555Z,9.30
2022-12-03T10:02:54.668Z,9.68
2022-12-03T10:05:22.775Z,10.32
2022-12-03T10:07:51.589Z,9.32
2022-12-03T10:10:21.442Z,9.90
2022-12-03T10:12:49.226Z,10.23
2022-12-03T10:15:19.787Z,9.68
2022-12-03T10:17:48.483Z,10.63
2022-12-03T10:20:20.043Z,10.40
2022-12-03T10:22:48.719Z,9.90
2022-12-03T10:25:19.997Z,9.27
2022-12-03T10:27:59.222Z,9.98
2022-12-03T10:30:28.369Z,10.85
2022-12-03T10:32:57.463Z,9.98
2022-12-03T10:35:35.611Z,8.98
2022-12-03T10:38:03.643Z,10.65
2022-12-03T10:40:39.246Z,11.05
2022-12-03T10:43:19.623Z,9.85
2022-12-03T10:45:48.795Z,10.50
2022-12-03T10:48:17.692Z,11.90
2022-12-03T10:51:03.377Z,9.88
2022-12-03T10:53:32.842Z,9.50
2022-12-03T10:56:05.680Z,8.90
2022-12-03T10:58:37.275Z,9.75
2022-12-03T11:03:37.514Z,9.93
2022-12-03T11:06:04.495Z,8.82
2022-12-03T11:08:36.838Z,10.30
2022-12-03T11:11:13.280Z,10.15
2022-12-03T11:13:45.468Z,10.35
2022-12-03T11:16:13.450Z,9.35
2022-12-03T11:18:40.163Z,9.93
2022-12-03T11:21:07.178Z,10.52
2022-12-03T11:23:46.046Z,11.00
2022-12-03T11:26:37.240Z,9.55
2022-12-03T11:29:05.013Z,9.45
2022-12-03T11:31:42.331Z,10.02
2022-12-03T11:34:18.202Z,9.38
2022-12-03T11:37:17.168Z,8.20
2022-12-03T11:39:49.805Z,8.95
2022-12-03T11:42:28.471Z,8.95
2022-12-03T11:45:04.280Z,7.82
2022-12-03T11:47:42.629Z,10.50
2022-12-03T11:50:21.102Z,9.73
2022-12-03T11:53:22.108Z,8.82
2022-12-03T11:56:06.312Z,8.85
2022-12-03T11:58:38.611Z,8.45
2022-12-03T12:01:07.382Z,9.27
2022-12-03T12:03:43.905Z,9.68
2022-12-03T12:06:12.948Z,9.82
2022-12-03T12:09:03.813Z,8.35
2022-12-03T12:11:35.472Z,8.93
2022-12-03T12:14:07.191Z,9.70
2022-12-03T12:19:33.528Z,8.10
2022-12-03T12:22:13.829Z,8.68
2022-12-03T12:24:41.176Z,8.75
2022-12-03T12:27:20.408Z,9.38
2022-12-03T12:29:57.485Z,9.23
2022-12-03T12:32:30.152Z,8.98
2022-12-03T12:35:23.114Z,9.05
2022-12-03T12:37:59.540Z,8.57
2022-12-03T12:40:29.928Z,9.27
2022-12-03T12:43:00.176Z,14.80
2022-12-03T12:45:33.926Z,8.10
2022-12-03T12:48:21.963Z,7.43
2022-12-03T12:50:53.029Z,8.38
2022-12-03T12:53:27.013Z,8.10
2022-12-03T12:55:59.701Z,7.47
2022-12-03T12:58:30.007Z,7.10
2022-12-03T13:01:01.569Z,6.18
2022-12-03T13:03:32.663Z,7.78
2022-12-03T13:05:59.476Z,8.35
2022-12-03T13:08:38.571Z,6.88
2022-12-03T13:11:06.370Z,8.05
2022-12-03T13:13:43.710Z,7.20
2022-12-03T13:16:25.744Z,7.00
2022-12-03T13:19:02.718Z,6.07
2022-12-03T13:21:40.455Z,6.53
2022-12-03T13:24:36.783Z,6.88
2022-12-03T13:27:31.141Z,6.57
2022-12-03T13:30:14.326Z,7.90
2022-12-03T13:32:42.580Z,8.18
2022-12-03T13:35:35.154Z,6.72
2022-12-03T13:38:13.413Z,8.02
2022-12-03T13:40:41.355Z,6.95
2022-12-03T13:43:14.481Z,7.57
2022-12-03T13:45:44.963Z,7.50
2022-12-03T13:48:34.418Z,7.47
2022-12-03T13:51:23.347Z,6.40
2022-12-03T13:53:50.275Z,5.55
2022-12-03T13:56:31.524Z,6.60
2022-12-03T13:59:00.231Z,7.63
2022-12-03T14:01:28.021Z,7.05
2022-12-03T14:03:55.145Z,7.65
2022-12-03T14:06:21.888Z,7.70
2022-12-03T14:08:48.597Z,6.97
2022-12-03T14:11:33.748Z,6.60
2022-12-03T14:14:00.755Z,6.28
2022-12-03T14:16:27.560Z,7.15
2022-12-03T14:18:54.431Z,6.63
2022-12-03T14:21:21.232Z,7.65
2022-12-03T14:23:48.382Z,7.65
2022-12-03T14:26:15.226Z,6.35
2022-12-03T14:28:42.409Z,8.43
2022-12-03T14:31:09.400Z,8.20
2022-12-03T14:33:36.607Z,7.70
2022-12-03T14:36:03.481Z,6.45
2022-12-03T14:38:30.192Z,7.82
2022-12-03T14:40:57.037Z,6.80
2022-12-03T14:43:24.088Z,5.90
2022-12-03T14:45:51.279Z,6.70
2022-12-03T14:48:20.990Z,6.70
2022-12-03T14:50:47.762Z,7.35
2022-12-03T14:53:14.627Z,6.63
2022-12-03T14:55:41.408Z,7.25
2022-12-03T14:58:08.445Z,6.20
2022-12-03T15:00:35.176Z,7.18
2022-12-03T15:03:01.966Z,6.22
2022-12-03T15:05:29.263Z,5.82
2022-12-03T15:07:56.167Z,6.32
2022-12-03T15:10:23.132Z,5.32
2022-12-03T15:12:49.853Z,5.65
2022-12-03T15:15:16.643Z,6.35
2022-12-03T15:17:45.591Z,8.00
2022-12-03T15:20:13.004Z,6.68
2022-12-03T15:22:39.708Z,6.10
2022-12-03T15:25:08.057Z,6.93
2022-12-03T15:27:34.829Z,6.72
2022-12-03T15:30:01.723Z,6.93
2022-12-03T15:32:28.593Z,6.55
2022-12-03T15:34:57.751Z,7.00
2022-12-03T15:37:27.561Z,6.60
2022-12-03T15:39:55.181Z,6.10
2022-12-03T15:42:22.117Z,6.32
2022-12-03T15:44:48.809Z,6.45
2022-12-03T15:47:15.737Z,6.32
2022-12-03T15:49:42.608Z,6.40
2022-12-03T15:52:09.321Z,5.85
2022-12-03T15:54:36.255Z,6.10
2022-12-03T15:57:03.263Z,6.15
2022-12-03T15:59:30.070Z,5.20
2022-12-03T16:01:56.989Z,5.70
2022-12-03T16:04:23.741Z,7.55
2022-12-03T16:06:50.542Z,7.18
2022-12-03T16:09:19.986Z,6.78
2022-12-03T16:11:49.137Z,6.63
2022-12-03T16:14:15.993Z,8.68
2022-12-03T16:16:42.661Z,6.45
2022-12-03T16:19:09.437Z,5.85
2022-12-03T16:21:36.214Z,6.78
2022-12-03T16:24:03.182Z,5.85
2022-12-03T16:26:30.205Z,5.70
2022-12-03T16:28:59.305Z,5.78
2022-12-03T16:31:26.047Z,6.20
2022-12-03T16:33:52.779Z,6.95
2022-12-03T16:36:19.489Z,6.55
2022-12-03T16:38:46.251Z,7.03
2022-12-03T16:41:12.993Z,6.38
2022-12-03T16:43:39.825Z,6.78
2022-12-03T16:46:18.476Z,6.55
2022-12-03T16:48:45.633Z,6.60
2022-12-03T16:51:12.352Z,6.30
2022-12-03T16:53:39.308Z,7.45
2022-12-03T16:56:06.086Z,6.43
2022-12-03T16:58:32.973Z,5.65
2022-12-03T17:01:01.044Z,5.90
2022-12-03T17:03:33.450Z,6.78
2022-12-03T17:06:03.515Z,5.75
2022-12-03T17:08:30.708Z,6.07
2022-12-03T17:10:57.807Z,7.20
2022-12-03T17:13:24.719Z,6.50
2022-12-03T17:15:51.557Z,6.88
2022-12-03T17:18:18.256Z,8.10
2022-12-03T17:20:45.036Z,6.65
2022-12-03T17:23:12.233Z,6.47
2022-12-03T17:25:39.153Z,6.30
2022-12-03T17:28:06.222Z,5.45
2022-12-03T17:30:40.668Z,7.18
2022-12-03T17:33:07.570Z,6.68
2022-12-03T17:35:34.562Z,7.45
2022-12-03T17:38:02.612Z,7.07
2022-12-03T17:40:29.473Z,7.57
2022-12-03T17:42:56.190Z,7.47
2022-12-03T17:45:22.925Z,7.45
2022-12-03T17:47:49.608Z,6.65
2022-12-03T17:50:16.368Z,7.20
2022-12-03T17:52:43.074Z,7.88
2022-12-03T17:55:13.217Z,6.38
2022-12-03T17:57:42.970Z,6.90
2022-12-03T18:00:10.217Z,7.97
2022-12-03T18:02:41.673Z,6.25
2022-12-03T18:05:09.214Z,6.47
2022-12-03T18:07:36.012Z,6.68
2022-12-03T18:10:02.912Z,6.95
2022-12-03T18:12:30.772Z,7.38
2022-12-03T18:14:57.485Z,6.72
2022-12-03T18:17:24.184Z,8.27
2022-12-03T18:19:52.296Z,6.93
2022-12-03T18:22:19.352Z,6.55
2022-12-03T18:24:50.248Z,6.88
2022-12-03T18:27:19.805Z,9.15
2022-12-03T18:29:46.601Z,8.25
2022-12-03T18:32:27.596Z,6.72
2022-12-03T18:34:55.224Z,6.78
2022-12-03T18:37:24.058Z,7.13
2022-12-03T18:39:50.824Z,6.25
2022-12-03T18:42:19.952Z,7.70
2022-12-03T18:44:49.945Z,6.88
2022-12-03T18:47:19.448Z,7.60
2022-12-03T18:49:46.736Z,8.23
2022-12-03T18:52:15.241Z,8.10
2022-12-03T18:54:42.282Z,6.88
2022-12-03T18:57:09.248Z,7.97
2022-12-03T18:59:37.181Z,7.55
2022-12-03T19:02:04.882Z,8.05
2022-12-03T19:04:31.797Z,8.88
2022-12-03T19:06:58.829Z,7.85
2022-12-03T19:09:26.070Z,7.68
2022-12-03T19:11:53.153Z,8.07
2022-12-03T19:14:20.159Z,6.93
2022-12-03T19:16:47.042Z,7.07
2022-12-03T19:19:13.780Z,7.82
2022-12-03T19:21:40.487Z,7.60
2022-12-03T19:24:24.726Z,6.80
2022-12-03T19:26:54.686Z,7.10
2022-12-03T19:29:25.420Z,6.68
2022-12-03T19:31:52.169Z,6.78
2022-12-03T19:34:19.443Z,6.75
2022-12-03T19:36:47.433Z,8.05
2022-12-03T19:39:14.235Z,6.38
2022-12-03T19:41:43.086Z,7.38
2022-12-03T19:44:13.570Z,6.88
2022-12-03T19:46:41.149Z,7.38
2022-12-03T19:49:08.098Z,7.78
2022-12-03T19:51:35.919Z,6.88
2022-12-03T19:54:08.112Z,7.25
2022-12-03T19:56:35.130Z,7.30
2022-12-03T19:59:02.400Z,6.45
2022-12-03T20:01:34.673Z,7.55
2022-12-03T20:04:03.218Z,6.43
2022-12-03T20:06:32.650Z,7.47
2022-12-03T20:09:02.603Z,7.72
2022-12-03T20:11:32.051Z,8.35
2022-12-03T20:14:01.130Z,7.53
2022-12-03T20:16:29.063Z,7.90
2022-12-03T20:18:58.518Z,7.20
2022-12-03T20:21:25.541Z,7.60
2022-12-03T20:23:53.013Z,6.70
2022-12-03T20:26:21.546Z,8.88
2022-12-03T20:28:48.985Z,7.80
2022-12-03T20:31:19.662Z,7.47
2022-12-03T20:33:49.923Z,6.53
2022-12-03T20:36:19.422Z,8.05
2022-12-03T20:38:46.612Z,6.93
2022-12-03T20:41:16.777Z,6.45
2022-12-03T20:43:43.546Z,7.40
2022-12-03T20:46:15.829Z,6.35
2022-12-03T20:48:44.161Z,6.85
2022-12-03T20:51:13.858Z,7.20
2022-12-03T20:53:41.448Z,6.57
2022-12-03T20:56:09.028Z,7.38
2022-12-03T20:58:35.830Z,7.03
2022-12-03T21:01:16.140Z,7.32
2022-12-03T21:03:44.431Z,7.10
2022-12-03T21:06:11.722Z,7.63
2022-12-03T21:08:42.032Z,7.13
2022-12-03T21:11:18.744Z,8.18
2022-12-03T21:13:46.847Z,8.20
2022-12-03T21:16:16.827Z,6.95
2022-12-03T21:18:44.687Z,7.65
2022-12-03T21:21:13.540Z,7.28
2022-12-03T21:23:40.989Z,6.85
2022-12-03T21:26:12.066Z,6.55
2022-12-03T21:31:10.941Z,6.68
2022-12-03T21:33:38.251Z,7.78
2022-12-03T21:36:06.215Z,8.18
2022-12-03T21:38:34.529Z,7.20
2022-12-03T21:41:01.560Z,6.53
2022-12-03T21:43:28.858Z,8.05
2022-12-03T21:45:56.238Z,7.65
2022-12-03T21:48:22.963Z,7.05
2022-12-03T21:51:04.694Z,6.13
2022-12-03T21:55:59.737Z,6.50
2022-12-03T21:58:26.545Z,7.57
2022-12-03T22:00:53.506Z,7.20
2022-12-03T22:03:20.325Z,6.72
2022-12-03T22:05:47.178Z,5.78
2022-12-03T22:08:13.993Z,7.15
2022-12-03T22:10:41.534Z,7.13
2022-12-03T22:13:08.232Z,6.30
2022-12-03T22:15:37.557Z,7.43
2022-12-03T22:18:04.789Z,7.50
2022-12-03T22:20:31.493Z,7.63
2022-12-03T22:22:58.211Z,6.75
2022-12-03T22:25:24.959Z,8.82
2022-12-03T22:27:51.904Z,7.05
2022-12-03T22:30:18.834Z,6.95
2022-12-03T22:32:45.579Z,6.88
2022-12-03T22:35:12.392Z,5.97
2022-12-03T22:37:39.304Z,7.32
2022-12-03T22:40:06.780Z,7.38
2022-12-03T22:42:33.731Z,6.28
2022-12-03T22:45:00.485Z,7.15
2022-12-03T22:47:27.192Z,6.88
2022-12-03T22:49:54.140Z,6.60
2022-12-03T22:52:21.074Z,6.25
2022-12-03T22:54:48.296Z,6.22
2022-12-03T22:57:15.720Z,6.35
2022-12-03T22:59:42.601Z,5.88
2022-12-03T23:02:09.317Z,6.18
2022-12-03T23:04:36.003Z,6.63
2022-12-03T23:07:02.721Z,5.35
2022-12-03T23:09:29.446Z,6.40
2022-12-03T23:11:56.214Z,7.07
2022-12-03T23:14:22.909Z,7.13
2022-12-03T23:16:49.818Z,6.78
2022-12-03T23:19:19.732Z,6.15
2022-12-03T23:21:46.442Z,6.97
2022-12-03T23:24:13.360Z,5.95
2022-12-03T23:26:40.473Z,6.30
2022-12-03T23:29:08.764Z,7.25
2022-12-03T23:31:36.099Z,7.20
2022-12-03T23:34:03.941Z,6.18
2022-12-03T23:36:33.654Z,4.68
2022-12-03T23:39:00.835Z,6.28
2022-12-03T23:41:27.734Z,6.85
2022-12-03T23:43:54.526Z,6.70
2022-12-03T23:46:24.213Z,7.03
2022-12-03T23:48:52.407Z,7.05
2022-12-03T23:51:23.401Z,6.88
2022-12-03T23:53:50.598Z,5.97
2022-12-03T23:56:20.526Z,6.50
2022-12-03T23:58:47.869Z,6.65
